Time;durP1;ratioP1;P1;durP2;ratioP2;P2;SDS_P1;SDS_P2;PMS_P1;PMS_P2;Temp;Humidity;BMP_temperature;BMP_pressure;BME280_temperature;BME280_humidity;BME280_pressure;Samples;Min_cycle;Max_cycle;Signal;HPM_P1;HPM_P2
2023/11/02 00:01:10;;;;;;;1.25;0.68;;;16.30;72.70;;;;;;5115780;28;20693;-69
2023/11/02 00:03:40;;;;;;;2.83;0.73;;;16.30;72.80;;;;;;5115957;28;20165;-69
2023/11/02 00:06:27;;;;;;;1.10;0.82;;;16.30;72.50;;;;;;5115054;28;20173;-71
2023/11/02 00:09:24;;;;;;;1.27;0.80;;;16.30;72.80;;;;;;5098033;28;20607;-71
2023/11/02 00:11:54;;;;;;;1.20;0.73;;;16.30;72.80;;;;;;5096785;28;20181;-71
2023/11/02 00:14:20;;;;;;;0.75;0.75;;;16.20;72.60;;;;;;5115603;28;20176;-68
2023/11/02 00:16:49;;;;;;;1.30;0.70;;;16.20;72.60;;;;;;5115856;28;20612;-69
2023/11/02 00:19:31;;;;;;;0.98;0.70;;;16.30;72.70;;;;;;5096392;28;20165;-70
2023/11/02 00:21:58;;;;;;;0.70;0.70;;;16.20;72.50;;;;;;5115789;28;20213;-69
2023/11/02 00:24:24;;;;;;;1.55;1.10;;;16.20;72.50;;;;;;5115439;28;20211;-70
2023/11/02 00:26:49;;;;;;;0.98;0.80;;;16.20;72.50;;;;;;5096657;28;20177;-70
2023/11/02 00:29:15;;;;;;;1.35;0.82;;;16.20;72.60;;;;;;5115444;28;20238;-70
2023/11/02 00:31:40;;;;;;;1.30;0.70;;;16.20;72.60;;;;;;5115528;28;20173;-71
2023/11/02 00:34:07;;;;;;;2.22;0.95;;;16.20;72.60;;;;;;5114375;28;20519;-70
2023/11/02 00:36:32;;;;;;;0.98;0.60;;;16.20;72.40;;;;;;5115302;28;20193;-71
2023/11/02 00:38:58;;;;;;;1.73;0.75;;;16.20;72.50;;;;;;5115010;28;20177;-69
2023/11/02 00:41:24;;;;;;;1.08;0.80;;;16.10;72.40;;;;;;5096297;28;20179;-71
2023/11/02 00:43:49;;;;;;;1.02;0.73;;;16.20;72.60;;;;;;5115294;28;20181;-70
2023/11/02 00:46:15;;;;;;;0.60;0.52;;;16.20;72.30;;;;;;5096935;28;20623;-72
2023/11/02 00:48:40;;;;;;;1.77;0.80;;;16.20;72.50;;;;;;5114355;28;20217;-71
2023/11/02 00:51:07;;;;;;;1.02;0.55;;;16.20;72.50;;;;;;5114650;28;20177;-70
2023/11/02 00:53:32;;;;;;;1.17;0.85;;;16.20;72.60;;;;;;5115058;28;20268;-71
2023/11/02 00:56:01;;;;;;;1.20;0.90;;;16.20;72.50;;;;;;5095820;28;20252;-69
2023/11/02 00:58:30;;;;;;;1.17;0.70;;;16.20;72.60;;;;;;5097207;28;20217;-71
2023/11/02 01:00:55;;;;;;;2.50;0.90;;;16.20;72.60;;;;;;5114281;28;20176;-70
2023/11/02 01:03:21;;;;;;;1.60;0.63;;;16.10;72.40;;;;;;5114504;28;20173;-70
2023/11/02 01:05:47;;;;;;;1.17;0.63;;;16.20;72.50;;;;;;5114973;28;20248;-71
2023/11/02 01:08:12;;;;;;;1.80;0.82;;;16.20;72.30;;;;;;5113728;28;20598;-70
2023/11/02 01:10:38;;;;;;;1.15;0.80;;;16.10;72.40;;;;;;5114823;28;20211;-71
2023/11/02 01:13:10;;;;;;;1.00;0.60;;;16.10;72.40;;;;;;5095981;28;20184;-69
2023/11/02 01:15:57;;;;;;;0.85;0.75;;;16.10;72.30;;;;;;5112579;28;20591;-71
2023/11/02 01:18:22;;;;;;;1.30;0.70;;;16.10;72.50;;;;;;5096018;28;20612;-70
2023/11/02 01:20:54;;;;;;;0.60;0.60;;;16.10;72.20;;;;;;5114471;28;20161;-69
2023/11/02 01:23:19;;;;;;;0.75;0.50;;;16.10;72.30;;;;;;5113091;28;20237;-70
2023/11/02 01:25:46;;;;;;;2.58;1.02;;;16.10;72.20;;;;;;5114580;28;20173;-70
2023/11/02 01:28:15;;;;;;;3.28;0.70;;;16.10;72.40;;;;;;5114104;28;20169;-70
2023/11/02 01:30:40;;;;;;;2.28;0.90;;;16.10;72.30;;;;;;5113507;28;20189;-70
2023/11/02 01:33:34;;;;;;;1.48;0.75;;;16.10;72.30;;;;;;5113912;28;20173;-69
2023/11/02 01:36:00;;;;;;;1.17;0.85;;;16.10;72.40;;;;;;5113287;28;20294;-71
2023/11/02 01:38:26;;;;;;;1.02;0.73;;;16.10;72.30;;;;;;5113999;28;20684;-69
2023/11/02 01:41:03;;;;;;;1.13;0.60;;;16.10;72.20;;;;;;5114060;28;20651;-71
2023/11/02 01:43:32;;;;;;;1.35;0.82;;;16.10;72.20;;;;;;5113324;28;20181;-70
2023/11/02 01:45:57;;;;;;;0.60;0.60;;;16.10;72.30;;;;;;5113957;28;20173;-71
2023/11/02 01:48:45;;;;;;;2.05;0.68;;;16.10;72.20;;;;;;5095441;28;20228;-71
2023/11/02 01:51:22;;;;;;;1.50;0.80;;;16.10;72.20;;;;;;5097373;28;20180;-71
2023/11/02 01:53:54;;;;;;;0.88;0.70;;;16.00;72.20;;;;;;5097159;28;20188;-71
2023/11/02 01:56:23;;;;;;;2.17;0.88;;;16.10;72.30;;;;;;5113367;28;20636;-70
2023/11/02 01:58:52;;;;;;;0.70;0.70;;;16.10;72.20;;;;;;5095183;28;20168;-70
2023/11/02 02:01:26;;;;;;;0.88;0.70;;;16.10;72.20;;;;;;5113378;28;20287;-70
2023/11/02 02:03:57;;;;;;;0.68;0.65;;;16.00;72.00;;;;;;5113806;28;20184;-70
2023/11/02 02:06:27;;;;;;;1.15;0.70;;;16.10;72.20;;;;;;5112734;28;20166;-72
2023/11/02 02:09:17;;;;;;;1.70;0.68;;;16.10;72.10;;;;;;5095955;28;20188;-72
2023/11/02 02:11:46;;;;;;;2.10;0.80;;;16.00;72.00;;;;;;5112919;28;20235;-70
2023/11/02 02:14:23;;;;;;;1.52;0.63;;;16.00;72.10;;;;;;5095070;28;20173;-70
2023/11/02 02:16:55;;;;;;;1.20;0.68;;;16.00;72.10;;;;;;5113348;28;20201;-70
2023/11/02 02:19:59;;;;;;;0.80;0.80;;;16.00;72.00;;;;;;5077886;28;20181;-70
2023/11/02 02:22:28;;;;;;;0.90;0.60;;;16.00;72.10;;;;;;5057496;28;20180;-71
2023/11/02 02:25:16;;;;;;;0.65;0.60;;;16.00;72.10;;;;;;5113587;28;20185;-71
2023/11/02 02:27:50;;;;;;;2.00;0.50;;;16.00;71.90;;;;;;5079222;28;20573;-70
2023/11/02 02:30:40;;;;;;;2.28;0.55;;;16.00;72.00;;;;;;5113227;28;20180;-70
2023/11/02 02:33:40;;;;;;;2.35;0.77;;;16.00;72.00;;;;;;5111782;28;20192;-70
2023/11/02 02:36:35;;;;;;;0.65;0.60;;;16.00;72.80;;;;;;5095129;28;20173;-71
2023/11/02 02:39:05;;;;;;;0.93;0.70;;;16.00;72.00;;;;;;5083821;28;20674;-71
2023/11/02 02:41:36;;;;;;;1.90;0.73;;;16.00;71.80;;;;;;5111164;28;20212;-70
2023/11/02 02:44:02;;;;;;;0.88;0.80;;;16.00;72.00;;;;;;5112904;28;20209;-72
2023/11/02 02:46:28;;;;;;;1.25;0.70;;;16.00;71.90;;;;;;5112629;28;20197;-71
2023/11/02 02:48:53;;;;;;;1.38;0.70;;;16.00;71.90;;;;;;5113051;28;20609;-71
2023/11/02 02:51:19;;;;;;;1.52;0.90;;;16.00;71.90;;;;;;5112963;28;20252;-71
2023/11/02 02:53:44;;;;;;;0.73;0.60;;;16.00;71.90;;;;;;5094373;28;20276;-71
2023/11/02 02:56:12;;;;;;;1.67;0.90;;;15.90;71.80;;;;;;5077744;28;20723;-71
2023/11/02 02:58:44;;;;;;;1.30;0.80;;;16.00;71.60;;;;;;5095019;28;20213;-70
2023/11/02 03:01:10;;;;;;;1.30;0.75;;;16.00;71.90;;;;;;5111958;28;20628;-70
2023/11/02 03:03:36;;;;;;;0.65;0.65;;;16.00;71.70;;;;;;5078152;28;20188;-71
2023/11/02 03:06:01;;;;;;;1.10;0.98;;;15.90;71.60;;;;;;5094601;28;20191;-71
2023/11/02 03:08:31;;;;;;;0.98;0.60;;;16.00;71.80;;;;;;5112316;28;20252;-71
2023/11/02 03:10:57;;;;;;;1.00;0.90;;;15.90;71.70;;;;;;5095720;28;20168;-71
2023/11/02 03:13:22;;;;;;;2.08;0.70;;;15.90;71.80;;;;;;5077802;28;20544;-71
2023/11/02 03:15:49;;;;;;;2.50;0.90;;;16.00;71.80;;;;;;5094078;28;20659;-71
2023/11/02 03:18:17;;;;;;;1.08;0.80;;;15.90;71.70;;;;;;5112470;28;20217;-70
2023/11/02 03:20:42;;;;;;;1.20;0.80;;;16.00;71.60;;;;;;5095266;28;20190;-70
2023/11/02 03:23:20;;;;;;;1.15;0.60;;;15.90;71.70;;;;;;5111833;28;20169;-70
2023/11/02 03:26:21;;;;;;;1.98;0.88;;;15.90;71.60;;;;;;5112905;28;20610;-71
2023/11/02 03:29:05;;;;;;;1.02;0.50;;;16.00;71.80;;;;;;5064445;28;20197;-71
2023/11/02 03:31:57;;;;;;;1.38;0.90;;;16.00;71.60;;;;;;5096513;28;20216;-69
2023/11/02 03:34:47;;;;;;;1.30;0.80;;;15.90;71.30;;;;;;5112872;28;20276;-71
2023/11/02 03:37:34;;;;;;;0.93;0.85;;;15.90;71.60;;;;;;5111758;28;20205;-71
2023/11/02 03:40:06;;;;;;;0.50;0.50;;;15.90;71.50;;;;;;5094619;28;20643;-70
2023/11/02 03:42:49;;;;;;;1.50;0.77;;;15.90;71.50;;;;;;5111949;28;20181;-72
2023/11/02 03:45:26;;;;;;;1.02;0.50;;;15.90;71.40;;;;;;5080226;28;20169;-72
2023/11/02 03:48:24;;;;;;;0.93;0.80;;;15.90;71.50;;;;;;5098145;28;20220;-71
2023/11/02 03:50:53;;;;;;;1.50;0.80;;;15.90;71.40;;;;;;5073083;28;20193;-72
2023/11/02 03:53:28;;;;;;;1.70;0.70;;;15.90;71.30;;;;;;5116074;28;20264;-72
2023/11/02 03:56:11;;;;;;;1.70;0.80;;;15.90;71.30;;;;;;5081942;28;20180;-71
2023/11/02 03:59:08;;;;;;;0.63;0.60;;;15.90;71.30;;;;;;5082743;28;20209;-70
2023/11/02 04:02:00;;;;;;;2.72;1.08;;;15.90;71.50;;;;;;5100605;28;20624;-69
2023/11/02 04:04:35;;;;;;;0.77;0.75;;;15.90;71.30;;;;;;5100175;28;20264;-71
2023/11/02 04:07:02;;;;;;;1.15;0.73;;;15.90;71.30;;;;;;5115726;28;20184;-72
2023/11/02 04:09:32;;;;;;;2.25;0.90;;;15.90;71.40;;;;;;5115863;28;20169;-71
2023/11/02 04:11:59;;;;;;;0.88;0.70;;;15.90;71.10;;;;;;5097496;28;20257;-71
2023/11/02 04:14:25;;;;;;;1.25;0.88;;;15.90;71.20;;;;;;5116031;28;20174;-70
2023/11/02 04:16:51;;;;;;;1.75;0.82;;;15.90;71.30;;;;;;5115742;28;20197;-70
2023/11/02 04:19:16;;;;;;;1.10;0.70;;;15.90;71.30;;;;;;5096660;28;20530;-70
2023/11/02 04:21:42;;;;;;;1.65;0.75;;;15.90;71.40;;;;;;5080652;28;20173;-69
2023/11/02 04:24:07;;;;;;;2.88;0.85;;;15.90;71.30;;;;;;5097042;28;20169;-71
2023/11/02 04:26:33;;;;;;;1.67;0.68;;;15.90;71.40;;;;;;5115105;28;20205;-70
2023/11/02 04:29:02;;;;;;;2.25;1.00;;;15.90;71.40;;;;;;5115455;28;20177;-71
2023/11/02 04:31:31;;;;;;;0.50;0.50;;;15.90;71.20;;;;;;5115643;28;20218;-71
2023/11/02 04:33:56;;;;;;;1.00;0.68;;;15.80;71.20;;;;;;5096557;28;20177;-70
2023/11/02 04:36:22;;;;;;;0.90;0.70;;;15.90;71.30;;;;;;5096827;28;20177;-71
2023/11/02 04:38:52;;;;;;;1.45;0.90;;;15.90;71.30;;;;;;5114637;28;20556;-71
2023/11/02 04:41:18;;;;;;;0.98;0.70;;;15.80;71.20;;;;;;5115198;28;20188;-72
2023/11/02 04:43:43;;;;;;;1.08;0.80;;;15.90;71.30;;;;;;5115275;28;20263;-71
2023/11/02 04:46:09;;;;;;;1.38;1.00;;;15.90;71.40;;;;;;5114236;28;20692;-71
2023/11/02 04:48:34;;;;;;;0.68;0.40;;;15.90;72.20;;;;;;5096779;28;20714;-72
2023/11/02 04:51:00;;;;;;;0.98;0.85;;;15.90;71.30;;;;;;5096588;28;20260;-70
2023/11/02 04:53:26;;;;;;;1.50;0.70;;;15.90;71.10;;;;;;5114340;28;20252;-71
2023/11/02 04:55:51;;;;;;;1.60;0.77;;;15.80;71.30;;;;;;5114887;28;20168;-71
2023/11/02 04:58:17;;;;;;;1.10;0.70;;;15.80;71.20;;;;;;5114016;28;20739;-71
2023/11/02 05:00:42;;;;;;;1.63;0.90;;;15.80;71.20;;;;;;5114225;28;20193;-71
2023/11/02 05:03:08;;;;;;;1.13;0.60;;;15.80;71.20;;;;;;5114590;28;20230;-71
2023/11/02 05:05:33;;;;;;;3.88;1.10;;;15.80;71.00;;;;;;5114150;28;20196;-72
2023/11/02 05:07:59;;;;;;;0.75;0.75;;;15.80;70.90;;;;;;5078913;28;20248;-71
2023/11/02 05:10:25;;;;;;;1.27;0.98;;;15.80;71.10;;;;;;5114799;28;20542;-72
2023/11/02 05:12:50;;;;;;;1.77;0.85;;;15.80;71.00;;;;;;5114718;28;20257;-72
2023/11/02 05:15:16;;;;;;;1.10;0.60;;;15.80;71.00;;;;;;5113684;28;20197;-71
2023/11/02 05:17:42;;;;;;;1.85;0.93;;;15.80;70.90;;;;;;5114600;28;20258;-71
2023/11/02 05:20:07;;;;;;;0.75;0.70;;;15.80;70.80;;;;;;5114214;28;20223;-70
2023/11/02 05:22:33;;;;;;;1.85;0.70;;;15.80;70.70;;;;;;5113890;28;20581;-71
2023/11/02 05:24:58;;;;;;;1.77;1.05;;;15.80;70.90;;;;;;5114054;28;20255;-70
2023/11/02 05:27:25;;;;;;;3.25;0.80;;;15.80;70.90;;;;;;5114324;28;20176;-71
2023/11/02 05:29:50;;;;;;;1.65;1.05;;;15.80;70.70;;;;;;5113887;28;20177;-71
2023/11/02 05:32:17;;;;;;;1.27;1.02;;;15.80;71.00;;;;;;5113975;28;20217;-71
2023/11/02 05:34:43;;;;;;;2.28;1.05;;;15.80;70.90;;;;;;5114149;28;20197;-71
2023/11/02 05:37:08;;;;;;;0.80;0.70;;;15.90;71.00;;;;;;5112960;28;20679;-71
2023/11/02 05:39:34;;;;;;;1.60;0.90;;;15.80;70.80;;;;;;5114238;28;20184;-72
2023/11/02 05:41:59;;;;;;;2.20;1.00;;;15.80;70.90;;;;;;5113905;28;20715;-70
2023/11/02 05:44:25;;;;;;;0.93;0.65;;;15.80;70.70;;;;;;5113520;28;20527;-71
2023/11/02 05:46:52;;;;;;;1.85;0.77;;;15.80;70.80;;;;;;5114093;28;20169;-71
2023/11/02 05:49:18;;;;;;;2.28;0.80;;;15.80;70.80;;;;;;5112697;28;20277;-71
2023/11/02 05:51:43;;;;;;;1.40;0.73;;;15.80;70.80;;;;;;5113770;28;20256;-71
2023/11/02 05:54:09;;;;;;;1.40;0.98;;;15.80;70.80;;;;;;5113642;28;20211;-70
2023/11/02 05:56:35;;;;;;;2.47;0.68;;;15.80;70.90;;;;;;5112920;28;20183;-70
2023/11/02 05:59:00;;;;;;;1.40;0.90;;;15.80;70.70;;;;;;5113468;28;20310;-72
2023/11/02 06:01:26;;;;;;;0.95;0.82;;;15.80;70.60;;;;;;5113797;28;20639;-71
2023/11/02 06:03:51;;;;;;;2.05;1.05;;;15.80;70.80;;;;;;5112979;28;20172;-70
2023/11/02 06:06:17;;;;;;;1.67;0.80;;;15.80;70.70;;;;;;5113196;28;20238;-71
2023/11/02 06:08:43;;;;;;;1.80;1.10;;;15.70;70.70;;;;;;5113573;28;20173;-71
2023/11/02 06:11:09;;;;;;;0.85;0.60;;;15.80;70.60;;;;;;5112792;28;20192;-69
2023/11/02 06:13:34;;;;;;;2.20;1.13;;;15.80;70.70;;;;;;5113581;28;20165;-70
2023/11/02 06:16:00;;;;;;;1.30;1.20;;;15.80;70.70;;;;;;5113254;28;20203;-71
2023/11/02 06:18:26;;;;;;;0.98;0.70;;;15.80;70.60;;;;;;5112685;28;20244;-70
2023/11/02 06:20:52;;;;;;;2.58;0.98;;;15.70;70.70;;;;;;5113319;28;20222;-70
2023/11/02 06:23:18;;;;;;;1.58;0.82;;;15.70;70.70;;;;;;5113298;28;20177;-69
2023/11/02 06:25:44;;;;;;;1.77;0.80;;;15.80;70.40;;;;;;5112850;28;20173;-71
2023/11/02 06:28:10;;;;;;;1.33;0.80;;;15.70;70.50;;;;;;5113057;28;20591;-70
2023/11/02 06:30:35;;;;;;;2.55;0.90;;;15.80;70.30;;;;;;5113471;28;20199;-71
2023/11/02 06:33:02;;;;;;;2.22;0.90;;;15.70;70.40;;;;;;5112310;28;20580;-70
2023/11/02 06:35:28;;;;;;;1.00;0.90;;;15.80;70.50;;;;;;5078414;28;20670;-71
2023/11/02 06:37:57;;;;;;;1.42;0.80;;;15.70;70.40;;;;;;5113296;28;20209;-71
2023/11/02 06:40:23;;;;;;;1.63;0.98;;;15.70;70.50;;;;;;5112599;28;20169;-70
2023/11/02 06:42:52;;;;;;;0.60;0.60;;;15.70;70.30;;;;;;5113303;28;20184;-70
2023/11/02 06:45:17;;;;;;;3.17;1.27;;;15.70;70.40;;;;;;5112842;28;20177;-71
2023/11/02 06:47:43;;;;;;;4.45;0.88;;;15.70;70.40;;;;;;5112272;28;20228;-70
2023/11/02 06:50:09;;;;;;;2.63;0.70;;;15.70;70.30;;;;;;5112792;28;20173;-71
2023/11/02 06:52:35;;;;;;;1.45;0.90;;;15.70;70.50;;;;;;5112466;28;20620;-70
2023/11/02 06:55:01;;;;;;;1.75;0.70;;;15.70;70.50;;;;;;5112970;28;20536;-70
2023/11/02 06:57:26;;;;;;;1.25;0.77;;;15.70;70.40;;;;;;5113095;28;20701;-70
2023/11/02 06:59:52;;;;;;;0.70;0.70;;;15.70;70.60;;;;;;5112473;28;20184;-70
2023/11/02 07:02:18;;;;;;;1.38;0.80;;;15.70;70.60;;;;;;5112077;28;20196;-69
2023/11/02 07:04:44;;;;;;;1.85;1.35;;;15.70;70.70;;;;;;5078319;28;20169;-69
2023/11/02 07:07:09;;;;;;;1.10;0.80;;;15.80;70.70;;;;;;5111891;28;20175;-71
2023/11/02 07:09:35;;;;;;;1.92;0.80;;;15.80;70.50;;;;;;5112882;28;20165;-70
2023/11/02 07:12:02;;;;;;;1.02;0.70;;;15.80;70.30;;;;;;5113166;28;20214;-71
2023/11/02 07:14:28;;;;;;;1.50;1.02;;;15.90;70.30;;;;;;5112318;28;20227;-71
2023/11/02 07:16:53;;;;;;;0.68;0.68;;;15.90;70.00;;;;;;5112801;28;20197;-69
2023/11/02 07:19:19;;;;;;;1.65;0.82;;;16.00;70.10;;;;;;5112520;28;20522;-70
2023/11/02 07:21:44;;;;;;;1.52;0.88;;;16.20;70.00;;;;;;5115853;28;20668;-69
2023/11/02 07:24:10;;;;;;;1.38;0.80;;;16.30;69.60;;;;;;5116333;28;20206;-71
2023/11/02 07:26:38;;;;;;;1.23;0.60;;;16.50;69.50;;;;;;5116653;28;20169;-71
2023/11/02 07:29:03;;;;;;;1.52;0.88;;;16.60;69.10;;;;;;5115567;28;20181;-70
2023/11/02 07:31:29;;;;;;;1.00;0.68;;;16.70;68.80;;;;;;5116507;28;20169;-71
2023/11/02 07:33:54;;;;;;;1.23;0.70;;;16.80;68.70;;;;;;5116693;28;20173;-70
2023/11/02 07:36:20;;;;;;;1.17;0.60;;;16.80;68.70;;;;;;5115601;28;20631;-71
2023/11/02 07:38:45;;;;;;;1.77;0.70;;;16.90;68.80;;;;;;5116400;28;20663;-71
2023/11/02 07:41:11;;;;;;;1.27;0.63;;;17.00;68.60;;;;;;5116033;28;20654;-71
2023/11/02 07:43:37;;;;;;;1.95;0.88;;;17.10;68.20;;;;;;5097358;28;20184;-71
2023/11/02 07:46:02;;;;;;;1.33;0.80;;;17.10;68.20;;;;;;5115992;28;20165;-70
2023/11/02 07:48:28;;;;;;;1.88;0.80;;;17.30;67.80;;;;;;5116189;28;20217;-71
2023/11/02 07:50:53;;;;;;;1.80;1.02;;;17.40;67.70;;;;;;5115483;28;20177;-71
2023/11/02 07:53:22;;;;;;;1.77;0.80;;;17.50;67.30;;;;;;5116106;28;20172;-71
2023/11/02 07:55:48;;;;;;;2.85;0.70;;;17.60;67.20;;;;;;5115510;28;20169;-71
2023/11/02 07:58:13;;;;;;;2.78;0.98;;;17.60;67.20;;;;;;5115789;28;20216;-69
2023/11/02 08:00:39;;;;;;;1.35;1.00;;;17.70;67.10;;;;;;5116023;28;20689;-69
2023/11/02 08:03:04;;;;;;;2.88;1.00;;;17.70;67.00;;;;;;5115209;28;20173;-72
2023/11/02 08:05:30;;;;;;;2.78;1.17;;;17.70;66.90;;;;;;5097898;28;20261;-70
2023/11/02 08:07:56;;;;;;;1.42;0.65;;;17.90;67.10;;;;;;5116028;28;20260;-69
2023/11/02 08:10:21;;;;;;;2.70;1.05;;;17.90;67.10;;;;;;5114996;28;20176;-69
2023/11/02 08:12:47;;;;;;;2.70;1.00;;;17.90;67.10;;;;;;5115930;28;20176;-69
2023/11/02 08:15:12;;;;;;;3.17;0.77;;;17.90;67.10;;;;;;5115509;28;20180;-69
2023/11/02 08:17:40;;;;;;;3.55;0.90;;;18.00;67.30;;;;;;5115224;28;20209;-69
2023/11/02 08:20:07;;;;;;;2.67;0.85;;;18.00;67.30;;;;;;5115591;28;20173;-69
2023/11/02 08:22:32;;;;;;;1.60;0.80;;;18.00;67.30;;;;;;5118535;27;20177;-69
2023/11/02 08:24:58;;;;;;;2.25;1.00;;;18.00;67.30;;;;;;5125074;27;20256;-70
2023/11/02 08:27:24;;;;;;;2.47;1.00;;;17.90;67.40;;;;;;5124208;27;20165;-68
2023/11/02 08:29:50;;;;;;;1.20;0.70;;;17.90;67.70;;;;;;5125994;27;20169;-70
2023/11/02 08:32:16;;;;;;;1.92;0.63;;;17.80;67.90;;;;;;5124348;27;20535;-68
2023/11/02 08:34:42;;;;;;;1.95;0.85;;;17.80;68.10;;;;;;5124362;27;20301;-69
2023/11/02 08:37:08;;;;;;;3.35;1.10;;;17.70;68.40;;;;;;5125870;27;20245;-68
2023/11/02 08:39:35;;;;;;;2.70;0.85;;;17.70;68.50;;;;;;5124418;27;20169;-71
2023/11/02 08:42:01;;;;;;;0.75;0.50;;;17.70;68.50;;;;;;5123913;27;20217;-69
2023/11/02 08:44:29;;;;;;;1.90;0.77;;;17.70;68.40;;;;;;5125918;27;20168;-69
2023/11/02 08:46:54;;;;;;;1.73;0.80;;;17.60;68.50;;;;;;5114574;28;20198;-70
2023/11/02 08:49:20;;;;;;;3.30;1.08;;;17.50;68.80;;;;;;5114629;28;20354;-71
2023/11/02 08:51:46;;;;;;;1.10;0.90;;;17.40;69.10;;;;;;5115011;28;20640;-70
2023/11/02 08:54:12;;;;;;;2.63;0.90;;;17.40;69.20;;;;;;5113898;28;20537;-70
2023/11/02 08:56:37;;;;;;;1.20;0.70;;;17.30;69.50;;;;;;5114805;28;20710;-69
2023/11/02 08:59:03;;;;;;;2.67;1.02;;;17.30;69.60;;;;;;5113863;28;20173;-71
2023/11/02 09:01:29;;;;;;;1.23;0.90;;;17.20;69.70;;;;;;5114792;28;20169;-69
2023/11/02 09:03:55;;;;;;;1.42;0.90;;;17.10;69.90;;;;;;5114800;28;20180;-69
2023/11/02 09:06:22;;;;;;;1.48;0.60;;;17.10;70.10;;;;;;5113832;28;20184;-71
2023/11/02 09:08:49;;;;;;;2.28;0.85;;;17.00;70.00;;;;;;5114790;28;20253;-70
2023/11/02 09:11:14;;;;;;;1.67;0.88;;;16.90;70.20;;;;;;5114361;28;20173;-70
2023/11/02 09:13:40;;;;;;;1.48;0.60;;;16.90;70.40;;;;;;5113882;28;20184;-69
2023/11/02 09:16:06;;;;;;;1.90;0.70;;;16.90;70.50;;;;;;5114525;28;20188;-69
2023/11/02 09:18:32;;;;;;;2.33;0.80;;;16.90;70.50;;;;;;5114542;28;20578;-69
2023/11/02 09:20:58;;;;;;;2.92;0.93;;;16.90;70.50;;;;;;5113681;28;20188;-69
2023/11/02 09:23:23;;;;;;;1.02;0.90;;;16.80;70.30;;;;;;5114478;28;20643;-69
2023/11/02 09:25:49;;;;;;;1.33;0.75;;;16.80;70.40;;;;;;5114364;28;20265;-69
2023/11/02 09:28:15;;;;;;;3.15;1.00;;;16.80;70.40;;;;;;5113295;28;20177;-70
2023/11/02 09:30:44;;;;;;;7.32;0.98;;;16.80;70.30;;;;;;5114582;28;20191;-70
2023/11/02 09:33:10;;;;;;;1.23;0.70;;;16.80;70.30;;;;;;5113725;28;20264;-69
2023/11/02 09:35:36;;;;;;;1.35;0.73;;;16.90;70.30;;;;;;5113625;28;20248;-70
2023/11/02 09:38:01;;;;;;;1.63;0.70;;;16.80;70.10;;;;;;5113895;28;20201;-69
2023/11/02 09:40:27;;;;;;;1.55;0.68;;;16.90;70.10;;;;;;5114136;28;20628;-70
2023/11/02 09:42:53;;;;;;;1.48;0.85;;;16.80;70.10;;;;;;5112858;28;20169;-69
2023/11/02 09:45:19;;;;;;;1.05;0.82;;;16.90;70.30;;;;;;5113931;28;20180;-70
2023/11/02 09:47:45;;;;;;;2.30;0.98;;;16.80;70.10;;;;;;5095815;28;20229;-70
2023/11/02 09:50:12;;;;;;;1.13;0.73;;;16.80;70.20;;;;;;5112967;28;20252;-69
2023/11/02 09:52:38;;;;;;;2.80;0.75;;;16.80;70.20;;;;;;5114014;28;20177;-70
2023/11/02 09:55:04;;;;;;;1.15;0.90;;;16.80;69.90;;;;;;5095575;28;20175;-70
2023/11/02 09:57:34;;;;;;;0.60;0.60;;;16.90;70.10;;;;;;5095077;28;20231;-69
2023/11/02 09:59:59;;;;;;;1.90;0.68;;;16.90;70.00;;;;;;5095221;28;20197;-69
2023/11/02 10:02:25;;;;;;;2.03;0.80;;;16.90;70.00;;;;;;5113193;28;20178;-69
2023/11/02 10:04:51;;;;;;;1.58;0.90;;;16.90;69.90;;;;;;5113757;28;20208;-70
2023/11/02 10:07:19;;;;;;;0.90;0.65;;;16.90;69.90;;;;;;5113424;28;20173;-70
2023/11/02 10:09:45;;;;;;;1.00;0.70;;;16.90;69.80;;;;;;5112838;28;20192;-71
2023/11/02 10:12:11;;;;;;;1.10;0.60;;;17.00;69.70;;;;;;5094910;28;20642;-69
2023/11/02 10:14:37;;;;;;;1.08;0.73;;;17.00;69.80;;;;;;5113683;28;20169;-69
2023/11/02 10:17:03;;;;;;;2.92;1.00;;;16.90;69.80;;;;;;5112428;28;20204;-69
2023/11/02 10:19:31;;;;;;;1.50;0.82;;;16.90;69.90;;;;;;5113424;28;20180;-69
2023/11/02 10:21:57;;;;;;;1.33;0.80;;;16.90;69.90;;;;;;5113502;28;20218;-69
2023/11/02 10:24:35;;;;;;;1.50;0.88;;;17.00;69.90;;;;;;5112628;28;20172;-70
2023/11/02 10:27:04;;;;;;;1.38;0.70;;;16.90;69.50;;;;;;5113246;28;20172;-69
2023/11/02 10:29:30;;;;;;;1.23;0.77;;;17.00;69.70;;;;;;5113565;28;20222;-69
2023/11/02 10:31:56;;;;;;;0.77;0.77;;;17.00;69.70;;;;;;5112714;28;20557;-69
2023/11/02 10:34:25;;;;;;;2.05;0.80;;;17.00;69.80;;;;;;5112932;28;20647;-70
2023/11/02 10:36:51;;;;;;;1.30;0.80;;;16.90;69.90;;;;;;5113176;28;20177;-69
2023/11/02 10:39:23;;;;;;;0.73;0.60;;;16.90;69.90;;;;;;5112233;28;20173;-69
2023/11/02 10:41:59;;;;;;;2.05;0.80;;;16.90;70.00;;;;;;5113336;28;20180;-70
2023/11/02 10:44:30;;;;;;;1.85;0.70;;;16.90;70.00;;;;;;5113452;28;20205;-70
2023/11/02 10:47:01;;;;;;;1.20;0.90;;;16.90;70.00;;;;;;5113245;28;20186;-69
2023/11/02 10:49:27;;;;;;;2.10;1.08;;;16.90;70.00;;;;;;5112971;28;20624;-71
2023/11/02 10:51:53;;;;;;;1.30;0.80;;;16.80;69.90;;;;;;5112570;28;20169;-70
2023/11/02 10:54:41;;;;;;;4.38;0.70;;;16.80;70.00;;;;;;5094536;28;20647;-70
2023/11/02 10:57:16;;;;;;;1.20;0.65;;;16.80;70.10;;;;;;5098777;28;20208;-70
2023/11/02 10:59:43;;;;;;;1.58;0.80;;;16.80;70.20;;;;;;5116581;28;20628;-69
2023/11/02 11:02:10;;;;;;;2.00;0.70;;;16.80;70.20;;;;;;5116921;28;20173;-70
2023/11/02 11:04:36;;;;;;;2.72;0.70;;;16.80;70.30;;;;;;5099309;28;20211;-69
2023/11/02 11:07:01;;;;;;;1.50;0.80;;;16.80;69.90;;;;;;5098088;28;20196;-70
2023/11/02 11:09:29;;;;;;;2.30;0.88;;;16.80;69.90;;;;;;5098817;28;20232;-70
2023/11/02 11:11:57;;;;;;;1.33;0.70;;;16.80;70.50;;;;;;5098402;28;20181;-70
2023/11/02 11:14:23;;;;;;;3.60;0.98;;;16.90;69.90;;;;;;5097866;28;20177;-70
2023/11/02 11:16:48;;;;;;;2.40;0.60;;;16.90;70.00;;;;;;5098932;28;20176;-69
2023/11/02 11:19:14;;;;;;;0.63;0.50;;;16.90;70.00;;;;;;5098566;28;20169;-70
2023/11/02 11:21:40;;;;;;;1.27;0.70;;;16.80;69.80;;;;;;5116314;28;20175;-70
2023/11/02 11:24:12;;;;;;;1.90;0.70;;;16.90;69.70;;;;;;5098363;28;20181;-70
2023/11/02 11:26:45;;;;;;;2.65;1.02;;;16.90;70.40;;;;;;5116662;28;20651;-70
2023/11/02 11:29:36;;;;;;;3.20;1.20;;;16.90;69.50;;;;;;5116284;28;20547;-71
2023/11/02 11:32:03;;;;;;;1.33;0.50;;;17.00;69.50;;;;;;5116211;28;20704;-70
2023/11/02 11:34:54;;;;;;;1.98;0.60;;;17.00;69.10;;;;;;5116057;28;20183;-71
2023/11/02 11:40:44;;;;;;;2.65;0.82;;;17.00;68.70;;;;;;5103027;28;20330;-72
2023/11/02 11:43:13;;;;;;;1.55;0.95;;;17.00;68.90;;;;;;5115906;28;20173;-70
2023/11/02 11:46:00;;;;;;;4.15;1.52;;;17.10;68.80;;;;;;5116395;28;20203;-71
2023/11/02 11:48:44;;;;;;;4.85;1.40;;;17.10;68.70;;;;;;5114817;28;20719;-71
2023/11/02 11:51:34;;;;;;;2.22;0.90;;;17.10;68.90;;;;;;5115006;28;20624;-71
2023/11/02 11:54:10;;;;;;;2.40;0.93;;;17.10;68.50;;;;;;5114811;28;20185;-70
2023/11/02 11:56:36;;;;;;;2.13;0.93;;;17.20;68.30;;;;;;5114291;28;20176;-69
2023/11/02 11:59:02;;;;;;;3.78;1.08;;;17.20;67.90;;;;;;5096529;28;20246;-70
2023/11/02 12:01:27;;;;;;;1.92;0.95;;;17.20;67.80;;;;;;5114965;28;20200;-70
2023/11/02 12:03:53;;;;;;;4.88;1.50;;;17.10;68.20;;;;;;5114142;28;20184;-69
2023/11/02 12:06:41;;;;;;;2.83;1.17;;;17.10;68.10;;;;;;5096020;28;20173;-72
2023/11/02 12:09:11;;;;;;;3.13;1.55;;;17.10;68.30;;;;;;5113982;28;20256;-72
2023/11/02 12:11:37;;;;;;;5.35;1.58;;;17.00;68.60;;;;;;5114968;28;20201;-72
2023/11/02 12:14:12;;;;;;;2.33;1.30;;;17.00;68.10;;;;;;5114371;28;20589;-70
2023/11/02 12:16:38;;;;;;;1.88;1.50;;;17.00;68.30;;;;;;5096767;28;20172;-71
2023/11/02 12:19:04;;;;;;;2.95;1.60;;;17.00;68.30;;;;;;5114216;28;20193;-69
2023/11/02 12:21:29;;;;;;;5.95;1.70;;;17.00;68.20;;;;;;5114586;28;20503;-72
2023/11/02 12:23:56;;;;;;;3.05;1.20;;;17.10;68.10;;;;;;5113687;28;20173;-72
2023/11/02 12:26:24;;;;;;;5.43;1.42;;;17.20;67.90;;;;;;5114184;28;20210;-71
2023/11/02 12:28:51;;;;;;;2.95;1.50;;;17.20;67.50;;;;;;5114544;28;20184;-72
2023/11/02 12:31:32;;;;;;;3.05;1.42;;;17.20;67.70;;;;;;5111723;28;20215;-70
2023/11/02 12:33:59;;;;;;;6.05;2.03;;;17.30;67.50;;;;;;5127433;28;20594;-72
2023/11/02 12:36:31;;;;;;;1.92;1.40;;;17.30;67.50;;;;;;5123416;28;20177;-70
2023/11/02 12:38:56;;;;;;;5.93;1.45;;;17.30;67.40;;;;;;5095378;28;20208;-71
2023/11/02 12:41:26;;;;;;;3.53;1.17;;;17.30;67.40;;;;;;5114873;28;20259;-72
2023/11/02 12:44:05;;;;;;;1.77;1.10;;;17.30;67.50;;;;;;5114222;28;20181;-71
2023/11/02 12:46:54;;;;;;;5.63;1.35;;;17.30;67.60;;;;;;5114471;28;20305;-72
2023/11/02 12:49:26;;;;;;;3.67;1.33;;;17.20;67.50;;;;;;5060008;28;1043717;-72
2023/11/02 12:52:01;;;;;;;5.25;1.58;;;17.20;67.50;;;;;;5114322;28;20181;-71
2023/11/02 12:54:27;;;;;;;4.22;1.38;;;17.10;67.80;;;;;;5114950;28;20225;-72
2023/11/02 12:56:54;;;;;;;2.45;1.38;;;17.10;68.10;;;;;;5115022;27;20181;-71
2023/11/02 12:59:22;;;;;;;4.07;1.77;;;17.00;68.20;;;;;;5114131;28;20181;-72
2023/11/02 13:01:55;;;;;;;3.75;1.30;;;17.00;68.20;;;;;;5115054;28;20180;-71